»·PEaware :: BADGR13 KEND-KEND

BADGR13 :: KEND-KEND

FLIGHT INFORMATION

Flight Status: Arrived
Operator: Unknown
More flights by this operator :: More flights under this callsign
Pilot: Abraham G. (22221)
Aircraft: BEECH AIRCRAFT T-6A TEXAN
(TEX2)
More flights by this aircraft type
Origin: KEND Vance AFB
United States
Destination: KEND Vance AFB
United States
More flights between these airports :: More routes between these airports
Route: +DF
File this flight plan on PilotEdge
Remarks:
Altitude:
(Current/Filed)
0ft
Speed:
(Current/Filed)
0kts
Departed: 22-Mar-20 06:45 AM
Arrived: 22-Mar-20 07:31 AM
Distance/Time
Traveled:
0nm/0:46
Distance/Time
To Go:
Arrived

Flight Plot

Page will automatically refresh every two minutes.

Flight plan parsing failed; only flown route is shown


Map Options




Map Legend


Flown Route
Filed Route
Departure Airport
Arrival Airport
Navaid (VOR, NDB)
Fix

Horizontal Profiles

Position Reports

Time Latitude Longitude Heading Altitude Ground
Speed
22-Mar-20 06:43 36.346970 -97.909991 216 1279ft 0kts
22-Mar-20 06:44 36.340668 -97.911064 179 1326ft 111kts
22-Mar-20 06:45 36.295113 -97.906621 177 3516ft 174kts
22-Mar-20 06:46 36.240554 -97.901101 172 5046ft 243kts
22-Mar-20 06:47 36.237310 -97.834714 19 4922ft 258kts
22-Mar-20 06:48 36.301092 -97.862075 334 5036ft 250kts
22-Mar-20 06:49 36.365786 -97.895431 334 5016ft 253kts
22-Mar-20 06:50 36.435655 -97.907830 0 5045ft 256kts
22-Mar-20 06:51 36.507793 -97.903810 359 4941ft 261kts
22-Mar-20 06:52 36.579907 -97.900357 1 5006ft 259kts
22-Mar-20 06:53 36.652030 -97.894008 1 4972ft 260kts
22-Mar-20 06:54 36.725008 -97.891169 337 3108ft 264kts
22-Mar-20 06:55 36.738904 -97.963014 267 2232ft 210kts
22-Mar-20 06:56 36.738717 -98.035702 267 2299ft 213kts
22-Mar-20 06:57 36.784997 -98.073517 351 2324ft 227kts
22-Mar-20 06:58 36.810549 -98.113522 243 2307ft 202kts
22-Mar-20 06:59 36.759353 -98.122708 184 4056ft 160kts
22-Mar-20 07:00 36.733755 -98.141357 324 3339ft 122kts
22-Mar-20 07:01 36.743186 -98.123328 182 1204ft 95kts
22-Mar-20 07:02 36.709844 -98.108942 95 1751ft 224kts
22-Mar-20 07:03 36.745965 -98.073567 0 2321ft 208kts
22-Mar-20 07:04 36.806562 -98.074078 341 1739ft 216kts
22-Mar-20 07:05 36.789320 -98.122480 186 1837ft 183kts
22-Mar-20 07:06 36.753381 -98.122820 183 1491ft 114kts
22-Mar-20 07:07 36.717926 -98.124499 182 1960ft 172kts
22-Mar-20 07:08 36.709124 -98.069343 86 4346ft 212kts
22-Mar-20 07:09 36.714739 -97.996042 80 7219ft 214kts
22-Mar-20 07:10 36.739659 -97.930947 13 9051ft 245kts
22-Mar-20 07:12 36.754109 -97.926619 332 9729ft 221kts
22-Mar-20 07:13 36.768252 -97.937039 49 7622ft 271kts
22-Mar-20 07:14 36.777961 -97.932571 295 7172ft 203kts
22-Mar-20 07:15 36.753026 -97.898708 145 6478ft 248kts
22-Mar-20 07:16 36.694830 -97.843185 150 6053ft 271kts
22-Mar-20 07:17 36.627545 -97.808072 181 6116ft 261kts
22-Mar-20 07:18 36.554922 -97.810681 183 5788ft 264kts
22-Mar-20 07:19 36.483806 -97.811900 184 5004ft 238kts
22-Mar-20 07:20 36.421417 -97.812780 183 5007ft 218kts
22-Mar-20 07:21 36.361440 -97.814151 185 5072ft 212kts
22-Mar-20 07:22 36.302040 -97.816460 185 4993ft 216kts
22-Mar-20 07:23 36.240535 -97.816931 183 3938ft 242kts
22-Mar-20 07:24 36.177524 -97.817930 183 2983ft 202kts
22-Mar-20 07:25 36.158633 -97.868913 273 3054ft 208kts
22-Mar-20 07:26 36.203666 -97.909738 351 2811ft 232kts
22-Mar-20 07:27 36.249919 -97.913041 355 2673ft 122kts
22-Mar-20 07:28 36.282464 -97.914224 355 2114ft 118kts
22-Mar-20 07:29 36.315444 -97.914626 357 1591ft 119kts
22-Mar-20 07:29 36.339965 -97.914694 2 1283ft 70kts
22-Mar-20 07:31 36.348175 -97.912750 133 1278ft 19kts
22-Mar-20 07:32 36.344075 -97.909198 180 1283ft 25kts
22-Mar-20 07:32 36.337443 -97.909217 179 1291ft 19kts
22-Mar-20 07:33 36.336596 -97.908187 176 1293ft 0kts

Navigation Log

Ident Type
Flight plan parsing failed, navigation log unavailable